Time;durP1;ratioP1;P1;durP2;ratioP2;P2;SDS_P1;SDS_P2;PMS_P1;PMS_P2;Temp;Humidity;BMP_temperature;BMP_pressure;BME280_temperature;BME280_humidity;BME280_pressure;Samples;Min_cycle;Max_cycle;Signal;HPM_P1;HPM_P2
2022/04/30 00:01:27;;;;;;;;;;;11.50;81.40;;;;;;5051824;28;19900;-74
2022/04/30 00:03:52;;;;;;;;;;;11.50;81.50;;;;;;5051405;28;19965;-74
2022/04/30 00:06:18;;;;;;;;;;;11.50;81.60;;;;;;5051452;28;20008;-73
2022/04/30 00:08:44;;;;;;;;;;;11.60;81.60;;;;;;5051393;28;19923;-75
2022/04/30 00:11:09;;;;;;;;;;;11.50;81.60;;;;;;5051355;28;19905;-74
2022/04/30 00:13:37;;;;;;;;;;;11.50;82.00;;;;;;5051640;28;20305;-73
2022/04/30 00:16:05;;;;;;;;;;;11.50;82.20;;;;;;5051422;28;19949;-73
2022/04/30 00:18:31;;;;;;;;;;;11.40;82.60;;;;;;5050044;28;20399;-73
2022/04/30 00:20:58;;;;;;;;;;;11.40;82.80;;;;;;5051111;28;19962;-73
2022/04/30 00:23:24;;;;;;;;;;;11.40;83.20;;;;;;5051182;28;19912;-74
2022/04/30 00:25:50;;;;;;;;;;;11.40;83.40;;;;;;5050788;28;20330;-73
2022/04/30 00:28:16;;;;;;;;;;;11.40;83.50;;;;;;5051050;28;19923;-74
2022/04/30 00:30:44;;;;;;;;;;;11.30;83.90;;;;;;5049995;28;19913;-73
2022/04/30 00:33:10;;;;;;;;;;;11.30;84.00;;;;;;5051211;28;20019;-74
2022/04/30 00:35:38;;;;;;;;;;;11.30;84.50;;;;;;5050997;28;20315;-74
2022/04/30 00:38:04;;;;;;;;;;;11.20;84.70;;;;;;5050806;28;19908;-74
2022/04/30 00:40:30;;;;;;;;;;;11.20;85.20;;;;;;5051200;28;19928;-74
2022/04/30 00:42:55;;;;;;;;;;;11.20;85.20;;;;;;5050871;28;20011;-74
2022/04/30 00:45:21;;;;;;;;;;;11.30;85.50;;;;;;5050924;28;19908;-74
2022/04/30 00:47:46;;;;;;;;;;;11.20;85.50;;;;;;5050991;28;20002;-74
2022/04/30 00:50:16;;;;;;;;;;;11.20;85.60;;;;;;5054876;28;20421;-74
2022/04/30 00:52:45;;;;;;;;;;;11.20;85.80;;;;;;5055306;28;19912;-74
2022/04/30 00:55:11;;;;;;;;;;;11.20;86.20;;;;;;5055337;28;20211;-74
2022/04/30 00:57:37;;;;;;;;;;;11.20;86.20;;;;;;5055002;28;19912;-74
2022/04/30 01:00:04;;;;;;;;;;;11.20;86.50;;;;;;5054894;28;19986;-73
2022/04/30 01:02:31;;;;;;;;;;;11.20;86.80;;;;;;5054993;28;19909;-73
2022/04/30 01:04:57;;;;;;;;;;;11.20;87.00;;;;;;5054852;28;19916;-74
2022/04/30 01:07:23;;;;;;;;;;;11.20;87.20;;;;;;5055104;28;19900;-74
2022/04/30 01:09:50;;;;;;;;;;;11.20;87.20;;;;;;5054840;28;19909;-74
2022/04/30 01:12:15;;;;;;;;;;;11.20;87.30;;;;;;5053562;28;20004;-74
2022/04/30 01:14:41;;;;;;;;;;;11.20;87.50;;;;;;5053488;28;19995;-75
2022/04/30 01:17:08;;;;;;;;;;;11.10;87.60;;;;;;5054535;28;19912;-73
2022/04/30 01:19:36;;;;;;;;;;;11.10;87.90;;;;;;5053858;28;19909;-75
2022/04/30 01:22:08;;;;;;;;;;;11.10;88.00;;;;;;5053187;28;20472;-73
2022/04/30 01:24:34;;;;;;;;;;;11.10;88.20;;;;;;5052867;28;19944;-74
2022/04/30 01:27:00;;;;;;;;;;;11.20;88.40;;;;;;5054250;28;20011;-75
2022/04/30 01:29:27;;;;;;;;;;;11.20;88.40;;;;;;5054308;28;20007;-75
2022/04/30 01:37:26;;;;;;;;;;;11.10;88.60;;;;;;5034311;28;20235;-72
2022/04/30 01:40:03;;;;;;;;;;;11.10;88.50;;;;;;5032797;28;19910;-74
2022/04/30 01:42:35;;;;;;;;;;;11.10;88.80;;;;;;5034155;28;19913;-74
2022/04/30 01:45:04;;;;;;;;;;;11.10;88.70;;;;;;5033174;28;19909;-75
2022/04/30 01:47:30;;;;;;;;;;;11.10;88.90;;;;;;5034100;28;20013;-74
2022/04/30 01:49:55;;;;;;;;;;;11.00;89.10;;;;;;5034025;28;19905;-73
2022/04/30 01:52:21;;;;;;;;;;;11.00;89.10;;;;;;5034382;28;20268;-74
2022/04/30 01:54:46;;;;;;;;;;;10.90;89.20;;;;;;5033966;28;19912;-74
2022/04/30 01:57:13;;;;;;;;;;;10.90;89.50;;;;;;5033829;28;19997;-74
2022/04/30 01:59:38;;;;;;;;;;;10.80;89.50;;;;;;5032205;28;19916;-74
2022/04/30 02:02:05;;;;;;;;;;;10.80;89.60;;;;;;5033761;28;19905;-74
2022/04/30 02:04:31;;;;;;;;;;;10.90;89.50;;;;;;5034132;28;20243;-73
2022/04/30 02:06:59;;;;;;;;;;;10.90;89.40;;;;;;5032590;28;19908;-75
2022/04/30 02:09:28;;;;;;;;;;;10.90;89.30;;;;;;5033612;28;20365;-73
2022/04/30 02:11:57;;;;;;;;;;;10.90;89.40;;;;;;5033585;28;20339;-74
2022/04/30 02:14:24;;;;;;;;;;;10.90;89.60;;;;;;5033408;28;19913;-74
2022/04/30 02:16:50;;;;;;;;;;;10.90;89.70;;;;;;5034002;28;19905;-75
2022/04/30 02:19:16;;;;;;;;;;;10.80;89.90;;;;;;5033614;28;19966;-73
2022/04/30 02:21:42;;;;;;;;;;;10.80;89.90;;;;;;5033502;28;19916;-74
2022/04/30 02:24:08;;;;;;;;;;;10.80;89.80;;;;;;5033296;28;19924;-73
2022/04/30 02:26:33;;;;;;;;;;;10.90;89.80;;;;;;5033407;28;19913;-74
2022/04/30 02:28:59;;;;;;;;;;;10.90;89.50;;;;;;5033224;28;19915;-73
2022/04/30 02:31:25;;;;;;;;;;;10.90;89.60;;;;;;5033672;28;19901;-73
2022/04/30 02:33:54;;;;;;;;;;;10.80;89.60;;;;;;5033516;28;19974;-73
2022/04/30 02:36:22;;;;;;;;;;;10.80;89.80;;;;;;5033109;28;19920;-73
2022/04/30 02:38:48;;;;;;;;;;;10.80;90.20;;;;;;5033196;28;20334;-73
2022/04/30 02:41:13;;;;;;;;;;;10.80;89.90;;;;;;5032750;28;19925;-73
2022/04/30 02:43:39;;;;;;;;;;;10.80;90.00;;;;;;5033483;28;19988;-73
2022/04/30 02:46:04;;;;;;;;;;;10.80;89.70;;;;;;5033177;28;19909;-73
2022/04/30 02:48:30;;;;;;;;;;;10.80;90.00;;;;;;5032969;28;19917;-74
2022/04/30 02:50:59;;;;;;;;;;;10.80;90.00;;;;;;5032796;28;19910;-74
2022/04/30 02:53:24;;;;;;;;;;;10.80;90.10;;;;;;5032704;28;19924;-73
2022/04/30 02:55:50;;;;;;;;;;;10.80;90.00;;;;;;5033291;28;20258;-74
2022/04/30 03:01:00;;;;;;;;;;;10.60;90.20;;;;;;5032742;28;19916;-74
2022/04/30 03:03:29;;;;;;;;;;;10.70;90.30;;;;;;5032865;28;19913;-74
2022/04/30 03:05:56;;;;;;;;;;;10.60;90.20;;;;;;5031404;28;20309;-74
2022/04/30 03:08:22;;;;;;;;;;;10.50;90.50;;;;;;5031415;28;20239;-74
2022/04/30 03:10:49;;;;;;;;;;;10.50;90.50;;;;;;5031053;28;20300;-74
2022/04/30 03:13:17;;;;;;;;;;;10.60;90.50;;;;;;5032203;28;19948;-74
2022/04/30 03:15:44;;;;;;;;;;;10.60;90.50;;;;;;5032364;28;20335;-73
2022/04/30 03:23:39;;;;;;;;;;;10.50;90.60;;;;;;5032388;28;19916;-74
2022/04/30 03:26:05;;;;;;;;;;;10.60;90.80;;;;;;5032157;28;20273;-73
2022/04/30 03:28:35;;;;;;;;;;;10.50;90.70;;;;;;5031635;28;19905;-74
2022/04/30 03:31:01;;;;;;;;;;;10.40;90.90;;;;;;5032139;28;19996;-73
2022/04/30 03:33:27;;;;;;;;;;;10.50;90.90;;;;;;5031964;28;20246;-74
2022/04/30 03:35:53;;;;;;;;;;;10.50;90.90;;;;;;5031944;28;19955;-73
2022/04/30 03:38:18;;;;;;;;;;;10.60;90.80;;;;;;5031941;28;19919;-73
2022/04/30 03:40:44;;;;;;;;;;;10.60;90.90;;;;;;5032025;28;19917;-73
2022/04/30 03:43:09;;;;;;;;;;;10.50;91.00;;;;;;5031574;28;19908;-73
2022/04/30 03:45:36;;;;;;;;;;;10.60;91.00;;;;;;5031786;28;19909;-75
2022/04/30 03:48:02;;;;;;;;;;;10.60;91.10;;;;;;5031899;28;19913;-75
2022/04/30 03:50:27;;;;;;;;;;;10.50;91.00;;;;;;5031761;28;19928;-73
2022/04/30 03:52:53;;;;;;;;;;;10.50;91.10;;;;;;5031699;28;19959;-73
2022/04/30 03:55:18;;;;;;;;;;;10.50;91.30;;;;;;5032014;28;19912;-74
2022/04/30 03:57:44;;;;;;;;;;;10.50;91.40;;;;;;5031636;28;20327;-73
2022/04/30 04:00:10;;;;;;;;;;;10.40;91.40;;;;;;5031858;28;20327;-73
2022/04/30 04:02:39;;;;;;;;;;;10.40;91.30;;;;;;5031611;28;19920;-74
2022/04/30 04:05:09;;;;;;;;;;;10.50;91.40;;;;;;5030355;28;19905;-74
2022/04/30 04:07:34;;;;;;;;;;;10.50;91.40;;;;;;5032169;28;20415;-74
2022/04/30 04:10:00;;;;;;;;;;;10.50;91.40;;;;;;5031574;28;20392;-73
2022/04/30 04:12:25;;;;;;;;;;;10.50;91.50;;;;;;5031323;28;20338;-74
2022/04/30 04:17:38;;;;;;;;;;;10.50;91.50;;;;;;5031461;28;19962;-74
2022/04/30 04:20:05;;;;;;;;;;;10.50;91.60;;;;;;5031388;28;20316;-74
2022/04/30 04:22:30;;;;;;;;;;;10.50;91.60;;;;;;5031599;28;20318;-74
2022/04/30 04:27:40;;;;;;;;;;;10.50;91.70;;;;;;5031339;28;20012;-73
2022/04/30 04:30:05;;;;;;;;;;;10.40;91.80;;;;;;5030056;28;19999;-75
2022/04/30 04:32:31;;;;;;;;;;;10.40;91.80;;;;;;5031432;28;19917;-74
2022/04/30 04:34:56;;;;;;;;;;;10.40;91.90;;;;;;5031231;28;20004;-73
2022/04/30 04:37:22;;;;;;;;;;;10.50;91.90;;;;;;5031566;28;19991;-74
2022/04/30 04:39:48;;;;;;;;;;;10.50;91.80;;;;;;5030776;28;19964;-73
2022/04/30 04:42:13;;;;;;;;;;;10.40;91.80;;;;;;5031009;28;19913;-74
2022/04/30 04:44:39;;;;;;;;;;;10.50;91.90;;;;;;5029821;28;19917;-74
2022/04/30 04:47:04;;;;;;;;;;;10.50;91.80;;;;;;5030861;28;19905;-74
2022/04/30 04:49:31;;;;;;;;;;;10.50;91.80;;;;;;5030327;28;19967;-74
2022/04/30 04:51:57;;;;;;;;;;;10.60;91.80;;;;;;5031218;28;20000;-73
2022/04/30 04:54:22;;;;;;;;;;;10.50;91.80;;;;;;5030771;28;20449;-74
2022/04/30 04:56:48;;;;;;;;;;;10.50;91.80;;;;;;5030894;28;19920;-74
2022/04/30 04:59:13;;;;;;;;;;;10.50;92.00;;;;;;5030830;28;19909;-74
2022/04/30 05:01:40;;;;;;;;;;;10.50;92.00;;;;;;5031655;28;19905;-74
2022/04/30 05:04:08;;;;;;;;;;;10.50;92.00;;;;;;5030851;28;19909;-74
2022/04/30 05:06:34;;;;;;;;;;;10.60;92.20;;;;;;5030756;28;19960;-73
2022/04/30 05:09:00;;;;;;;;;;;10.60;92.20;;;;;;5029502;28;20331;-74
2022/04/30 05:11:25;;;;;;;;;;;10.40;92.30;;;;;;5030663;28;19909;-74
2022/04/30 05:13:51;;;;;;;;;;;10.50;92.60;;;;;;5031038;28;19909;-74
2022/04/30 05:16:16;;;;;;;;;;;10.50;92.40;;;;;;5030573;28;19956;-74
2022/04/30 05:18:42;;;;;;;;;;;10.50;92.20;;;;;;5029515;28;19961;-74
2022/04/30 05:21:08;;;;;;;;;;;10.50;92.30;;;;;;5030528;28;19971;-73
2022/04/30 05:23:33;;;;;;;;;;;10.40;92.30;;;;;;5030643;28;20251;-74
2022/04/30 05:25:59;;;;;;;;;;;10.50;92.20;;;;;;5030628;28;20316;-74
2022/04/30 05:28:24;;;;;;;;;;;10.60;92.20;;;;;;5030999;28;19908;-73
2022/04/30 05:30:50;;;;;;;;;;;10.60;92.10;;;;;;5030682;28;19989;-73
2022/04/30 05:33:15;;;;;;;;;;;10.60;92.20;;;;;;5030314;28;20362;-72
2022/04/30 05:35:41;;;;;;;;;;;10.60;92.00;;;;;;5033207;28;19909;-74
2022/04/30 05:38:06;;;;;;;;;;;10.60;92.00;;;;;;5034149;28;20030;-74
2022/04/30 05:40:32;;;;;;;;;;;10.50;92.10;;;;;;5034473;28;20346;-74
2022/04/30 05:42:57;;;;;;;;;;;10.50;92.20;;;;;;5033944;28;19913;-74
2022/04/30 05:45:23;;;;;;;;;;;10.60;92.20;;;;;;5034181;28;20326;-75
2022/04/30 05:47:49;;;;;;;;;;;10.70;91.90;;;;;;5034029;28;19938;-74
2022/04/30 05:50:14;;;;;;;;;;;10.70;91.90;;;;;;5034048;28;19996;-74
2022/04/30 05:52:40;;;;;;;;;;;10.70;92.00;;;;;;5034101;28;20322;-74
2022/04/30 05:55:05;;;;;;;;;;;10.70;92.20;;;;;;5033860;28;20055;-74
2022/04/30 05:57:32;;;;;;;;;;;10.70;92.40;;;;;;5033838;28;19913;-75
2022/04/30 05:59:58;;;;;;;;;;;10.70;92.60;;;;;;5033748;28;20284;-75
2022/04/30 06:02:23;;;;;;;;;;;10.70;92.70;;;;;;5033835;28;19909;-75
2022/04/30 06:04:49;;;;;;;;;;;10.60;92.90;;;;;;5032899;28;19912;-74
2022/04/30 06:07:15;;;;;;;;;;;10.70;93.40;;;;;;5033695;28;20000;-74
2022/04/30 06:09:40;;;;;;;;;;;10.80;93.40;;;;;;5049106;28;19960;-74
2022/04/30 06:12:06;;;;;;;;;;;10.80;93.40;;;;;;5033714;28;19917;-74
2022/04/30 06:14:32;;;;;;;;;;;10.70;93.60;;;;;;5033462;28;20412;-75
2022/04/30 06:16:58;;;;;;;;;;;10.70;93.60;;;;;;5033234;28;20011;-75
2022/04/30 06:19:24;;;;;;;;;;;10.80;93.90;;;;;;5033846;28;19963;-73
2022/04/30 06:21:49;;;;;;;;;;;10.80;94.10;;;;;;5032424;28;19910;-75
2022/04/30 06:24:15;;;;;;;;;;;10.90;94.00;;;;;;5033283;28;19916;-74
2022/04/30 06:26:40;;;;;;;;;;;10.90;94.00;;;;;;5033369;28;19967;-74
2022/04/30 06:29:06;;;;;;;;;;;10.80;93.90;;;;;;5033278;28;19932;-73
2022/04/30 06:31:31;;;;;;;;;;;10.90;94.30;;;;;;5033699;28;20003;-74
2022/04/30 06:33:57;;;;;;;;;;;10.90;94.10;;;;;;5032971;28;19970;-74
2022/04/30 06:36:22;;;;;;;;;;;11.00;94.30;;;;;;5033146;28;19912;-74
2022/04/30 06:38:48;;;;;;;;;;;11.00;94.40;;;;;;5033041;28;20281;-74
2022/04/30 06:41:14;;;;;;;;;;;11.00;94.50;;;;;;5031571;28;19921;-73
2022/04/30 06:43:41;;;;;;;;;;;11.00;94.10;;;;;;5033194;28;20360;-74
2022/04/30 06:46:07;;;;;;;;;;;11.00;94.20;;;;;;5032805;28;19925;-74
2022/04/30 06:48:33;;;;;;;;;;;11.10;94.50;;;;;;5032763;28;19909;-73
2022/04/30 06:50:59;;;;;;;;;;;11.10;94.50;;;;;;5032906;28;20323;-74
2022/04/30 06:58:59;;;;;;;;;;;11.30;94.60;;;;;;5032982;28;19908;-74
2022/04/30 07:04:09;;;;;;;;;;;11.30;94.30;;;;;;5032534;28;19955;-74
2022/04/30 07:06:35;;;;;;;;;;;11.40;94.50;;;;;;5032558;28;20023;-73
2022/04/30 07:09:01;;;;;;;;;;;11.40;94.60;;;;;;5032447;28;20421;-74
2022/04/30 07:11:26;;;;;;;;;;;11.40;94.60;;;;;;5032450;28;19909;-73
2022/04/30 07:13:53;;;;;;;;;;;11.40;94.40;;;;;;5032685;28;19913;-74
2022/04/30 07:16:18;;;;;;;;;;;11.40;94.70;;;;;;5031337;28;19995;-73
2022/04/30 07:18:44;;;;;;;;;;;11.40;94.30;;;;;;5032426;28;20019;-75
2022/04/30 07:21:09;;;;;;;;;;;11.20;94.40;;;;;;5032064;28;20244;-73
2022/04/30 07:23:34;;;;;;;;;;;11.20;94.90;;;;;;5032393;28;20366;-74
2022/04/30 07:26:00;;;;;;;;;;;11.30;95.00;;;;;;5032198;28;20008;-73
2022/04/30 07:28:30;;;;;;;;;;;11.40;95.30;;;;;;5032616;28;19933;-74
2022/04/30 07:30:55;;;;;;;;;;;11.30;95.40;;;;;;5032232;28;20256;-74
2022/04/30 07:33:21;;;;;;;;;;;11.20;95.00;;;;;;5031715;28;19917;-74
2022/04/30 07:35:48;;;;;;;;;;;11.30;95.00;;;;;;5031814;28;19949;-74
2022/04/30 07:38:13;;;;;;;;;;;11.30;95.30;;;;;;5031231;28;20256;-73
2022/04/30 07:40:39;;;;;;;;;;;11.30;95.60;;;;;;5031879;28;19960;-74
2022/04/30 07:43:04;;;;;;;;;;;11.30;95.50;;;;;;5030582;28;19913;-73
2022/04/30 07:45:30;;;;;;;;;;;11.30;95.60;;;;;;5031571;28;19923;-74
2022/04/30 07:47:56;;;;;;;;;;;11.30;95.70;;;;;;5031563;28;20403;-73
2022/04/30 07:50:23;;;;;;;;;;;11.30;96.10;;;;;;5031577;28;19987;-74
2022/04/30 07:52:48;;;;;;;;;;;11.20;95.90;;;;;;5031875;28;20242;-74
2022/04/30 07:55:14;;;;;;;;;;;11.20;96.00;;;;;;5031508;28;19913;-74
2022/04/30 07:57:40;;;;;;;;;;;11.20;96.20;;;;;;5031099;28;19941;-74
2022/04/30 08:00:08;;;;;;;;;;;11.20;96.10;;;;;;5030525;28;19920;-73
2022/04/30 08:02:33;;;;;;;;;;;11.20;96.10;;;;;;5031570;28;20008;-73
2022/04/30 08:05:02;;;;;;;;;;;11.20;96.00;;;;;;5030574;28;20004;-73
2022/04/30 08:07:28;;;;;;;;;;;11.20;96.10;;;;;;5032009;28;19940;-74
2022/04/30 08:09:53;;;;;;;;;;;11.20;96.20;;;;;;5031489;28;19955;-74
2022/04/30 08:12:19;;;;;;;;;;;11.20;96.30;;;;;;5031342;28;20322;-73
2022/04/30 08:14:45;;;;;;;;;;;11.20;96.40;;;;;;5031561;28;20249;-74
2022/04/30 08:17:13;;;;;;;;;;;11.30;96.50;;;;;;5031396;28;19916;-75
2022/04/30 08:19:39;;;;;;;;;;;11.30;96.50;;;;;;5031778;28;19908;-75
2022/04/30 08:22:04;;;;;;;;;;;11.30;96.30;;;;;;5030294;28;19913;-74
2022/04/30 08:24:30;;;;;;;;;;;11.30;96.40;;;;;;5031260;28;20327;-73
2022/04/30 08:26:56;;;;;;;;;;;11.40;96.50;;;;;;5031129;28;20307;-74
2022/04/30 08:29:22;;;;;;;;;;;11.40;96.80;;;;;;5031160;28;19967;-74
2022/04/30 08:31:47;;;;;;;;;;;11.50;96.60;;;;;;5030322;28;19913;-74
2022/04/30 08:34:13;;;;;;;;;;;11.50;96.20;;;;;;5029608;28;19913;-75
2022/04/30 08:36:38;;;;;;;;;;;11.40;96.10;;;;;;5030665;28;20174;-74
2022/04/30 08:39:04;;;;;;;;;;;11.50;96.30;;;;;;5030901;28;19913;-73
2022/04/30 08:41:29;;;;;;;;;;;11.60;95.70;;;;;;5030297;28;20008;-75
2022/04/30 08:43:55;;;;;;;;;;;11.60;95.10;;;;;;5030705;28;19909;-73
2022/04/30 08:46:20;;;;;;;;;;;11.70;95.20;;;;;;5031423;28;20239;-74
2022/04/30 08:48:47;;;;;;;;;;;11.80;95.40;;;;;;5029707;28;19913;-71
2022/04/30 08:51:14;;;;;;;;;;;11.90;95.20;;;;;;5029759;28;20346;-73
2022/04/30 08:53:40;;;;;;;;;;;11.90;95.10;;;;;;5030788;28;19917;-74
2022/04/30 08:56:07;;;;;;;;;;;11.90;95.00;;;;;;5031017;28;19966;-74
2022/04/30 08:58:32;;;;;;;;;;;12.10;95.20;;;;;;5030277;28;20343;-73
2022/04/30 09:01:01;;;;;;;;;;;12.20;94.90;;;;;;5029717;28;19916;-74
2022/04/30 09:03:26;;;;;;;;;;;12.20;94.60;;;;;;5030938;28;19909;-73
2022/04/30 09:05:52;;;;;;;;;;;12.30;94.50;;;;;;5030815;28;19986;-73
2022/04/30 09:08:17;;;;;;;;;;;12.40;94.70;;;;;;5030744;28;19913;-73
2022/04/30 09:10:43;;;;;;;;;;;12.50;94.70;;;;;;5034442;28;19912;-73
2022/04/30 09:13:09;;;;;;;;;;;12.50;94.50;;;;;;5034548;28;20185;-74
2022/04/30 09:15:36;;;;;;;;;;;12.50;93.90;;;;;;5034627;28;19920;-74
2022/04/30 09:18:02;;;;;;;;;;;12.70;94.10;;;;;;5034732;28;19963;-74
2022/04/30 09:20:30;;;;;;;;;;;12.80;93.70;;;;;;5034655;28;19995;-74
2022/04/30 09:22:56;;;;;;;;;;;12.80;93.50;;;;;;5033714;28;19912;-74
2022/04/30 09:25:22;;;;;;;;;;;12.90;93.50;;;;;;5034310;28;19920;-74
2022/04/30 09:27:51;;;;;;;;;;;13.00;93.30;;;;;;5034928;28;19909;-73
2022/04/30 09:30:35;;;;;;;;;;;13.00;93.20;;;;;;5034793;28;19924;-75
2022/04/30 09:33:05;;;;;;;;;;;13.00;93.10;;;;;;5034299;28;19913;-74
2022/04/30 09:38:15;;;;;;;;;;;13.00;92.40;;;;;;5034239;28;19915;-72
2022/04/30 09:40:50;;;;;;;;;;;13.00;92.20;;;;;;5034466;28;19917;-74
2022/04/30 09:43:16;;;;;;;;;;;13.00;91.90;;;;;;5033059;28;19909;-74
2022/04/30 09:45:42;;;;;;;;;;;13.00;91.90;;;;;;5032783;28;20216;-74
2022/04/30 09:53:56;;;;;;;;;;;13.00;91.20;;;;;;5034421;28;20007;-74
2022/04/30 09:53:56;;;;;;;;;;;13.00;91.40;;;;;;5039126;28;20270;-74
2022/04/30 09:56:33;;;;;;;;;;;13.00;91.70;;;;;;5032569;28;19944;-73
2022/04/30 09:59:01;;;;;;;;;;;13.00;91.40;;;;;;5034012;28;20022;-73
2022/04/30 10:01:28;;;;;;;;;;;13.10;91.00;;;;;;5033258;28;19901;-74
2022/04/30 10:03:55;;;;;;;;;;;13.10;91.00;;;;;;5033723;28;20354;-74
2022/04/30 10:06:21;;;;;;;;;;;13.10;90.80;;;;;;5033497;28;19909;-74
2022/04/30 10:08:46;;;;;;;;;;;13.10;90.50;;;;;;5033458;28;19916;-74
2022/04/30 10:11:15;;;;;;;;;;;13.10;90.40;;;;;;5033619;28;19983;-74
2022/04/30 10:13:49;;;;;;;;;;;13.20;90.00;;;;;;5034101;28;19909;-74
2022/04/30 10:16:30;;;;;;;;;;;13.20;89.90;;;;;;5032539;28;20004;-74
2022/04/30 10:18:57;;;;;;;;;;;13.20;89.70;;;;;;5033567;28;20008;-74
2022/04/30 10:21:22;;;;;;;;;;;13.20;90.00;;;;;;5032013;28;19913;-74
2022/04/30 10:23:48;;;;;;;;;;;13.20;88.90;;;;;;5033399;28;20231;-74
2022/04/30 10:26:14;;;;;;;;;;;13.20;87.00;;;;;;5032341;28;19916;-74
2022/04/30 10:28:39;;;;;;;;;;;13.20;86.90;;;;;;5032702;28;19927;-74
2022/04/30 10:31:11;;;;;;;;;;;13.20;87.40;;;;;;5033349;28;19967;-73
2022/04/30 10:33:50;;;;;;;;;;;13.20;87.50;;;;;;5033224;28;20064;-73
2022/04/30 10:36:15;;;;;;;;;;;13.30;87.80;;;;;;5032098;28;19916;-73
2022/04/30 10:38:44;;;;;;;;;;;13.20;87.00;;;;;;5033257;28;19909;-74
2022/04/30 10:41:10;;;;;;;;;;;13.00;87.30;;;;;;5048431;28;19924;-74
2022/04/30 10:43:40;;;;;;;;;;;12.80;88.10;;;;;;5033371;28;20000;-73
2022/04/30 10:46:17;;;;;;;;;;;13.00;88.80;;;;;;5032955;28;20262;-73
2022/04/30 10:48:43;;;;;;;;;;;12.80;88.00;;;;;;5032976;28;19920;-73
2022/04/30 10:51:09;;;;;;;;;;;12.90;88.40;;;;;;5032910;28;19909;-73
2022/04/30 10:53:36;;;;;;;;;;;13.10;89.20;;;;;;5032525;28;20069;-74
2022/04/30 10:56:05;;;;;;;;;;;13.20;88.50;;;;;;5032695;28;19916;-74
2022/04/30 10:58:31;;;;;;;;;;;13.30;88.70;;;;;;5033334;28;19901;-72
2022/04/30 11:00:57;;;;;;;;;;;13.40;88.00;;;;;;5032565;28;19987;-74
2022/04/30 11:03:30;;;;;;;;;;;13.40;87.30;;;;;;5032783;28;19925;-73
2022/04/30 11:05:56;;;;;;;;;;;13.40;87.00;;;;;;5031434;28;19909;-73
2022/04/30 11:08:22;;;;;;;;;;;13.40;86.70;;;;;;5032902;28;20445;-73
2022/04/30 11:10:54;;;;;;;;;;;13.60;87.30;;;;;;5032919;28;19960;-74
2022/04/30 11:13:24;;;;;;;;;;;13.30;86.70;;;;;;5032548;28;19913;-75
2022/04/30 11:15:49;;;;;;;;;;;13.30;86.80;;;;;;5032385;28;19909;-73
2022/04/30 11:18:18;;;;;;;;;;;13.40;87.20;;;;;;5031327;28;20354;-74
2022/04/30 11:20:47;;;;;;;;;;;13.30;86.60;;;;;;5032586;28;19936;-74
2022/04/30 11:23:23;;;;;;;;;;;13.40;86.70;;;;;;5031008;28;19917;-73
2022/04/30 11:25:48;;;;;;;;;;;13.50;86.40;;;;;;5033040;28;19905;-72
2022/04/30 11:28:14;;;;;;;;;;;13.60;86.10;;;;;;5032269;28;19923;-72
2022/04/30 11:30:43;;;;;;;;;;;13.50;85.50;;;;;;5032194;28;20406;-73
2022/04/30 11:33:09;;;;;;;;;;;13.60;85.70;;;;;;5031225;28;19924;-74
2022/04/30 11:35:34;;;;;;;;;;;13.80;86.10;;;;;;5031929;28;19913;-74
2022/04/30 11:38:01;;;;;;;;;;;13.90;85.90;;;;;;5032015;28;20363;-73
2022/04/30 11:40:26;;;;;;;;;;;13.80;85.30;;;;;;5032275;28;19917;-74
2022/04/30 11:42:56;;;;;;;;;;;13.90;85.70;;;;;;5031934;28;20074;-73
2022/04/30 11:45:31;;;;;;;;;;;14.00;85.10;;;;;;5032028;28;19995;-74
2022/04/30 11:48:00;;;;;;;;;;;14.10;84.60;;;;;;5031023;28;20390;-74
2022/04/30 11:50:28;;;;;;;;;;;14.00;84.00;;;;;;5031892;28;19909;-75
2022/04/30 11:52:54;;;;;;;;;;;14.10;83.60;;;;;;5030688;28;20014;-75
2022/04/30 11:55:23;;;;;;;;;;;14.10;83.30;;;;;;5032184;28;19912;-75
2022/04/30 11:57:49;;;;;;;;;;;14.20;83.60;;;;;;5031688;28;19928;-74
2022/04/30 12:00:16;;;;;;;;;;;14.20;83.10;;;;;;5030459;28;20382;-73
2022/04/30 12:02:44;;;;;;;;;;;14.20;82.60;;;;;;5031505;28;19919;-74
2022/04/30 12:05:10;;;;;;;;;;;14.30;82.20;;;;;;5031414;28;19999;-74
2022/04/30 12:07:36;;;;;;;;;;;14.10;81.60;;;;;;5031863;28;19988;-73
2022/04/30 12:10:01;;;;;;;;;;;13.90;82.00;;;;;;5031702;28;19913;-74
2022/04/30 12:12:28;;;;;;;;;;;14.10;83.00;;;;;;5031626;28;19978;-74
2022/04/30 12:14:55;;;;;;;;;;;14.30;81.60;;;;;;5031494;28;19909;-74
2022/04/30 12:17:30;;;;;;;;;;;14.40;81.50;;;;;;5030394;28;19973;-74
2022/04/30 12:25:30;;;;;;;;;;;14.50;80.40;;;;;;5031644;28;19920;-74
2022/04/30 12:28:02;;;;;;;;;;;14.70;79.50;;;;;;5030366;28;19980;-74
2022/04/30 12:30:28;;;;;;;;;;;14.70;78.40;;;;;;5031317;28;20429;-74
2022/04/30 12:32:54;;;;;;;;;;;14.80;78.20;;;;;;5022839;28;19924;-74
2022/04/30 12:35:38;;;;;;;;;;;14.80;78.00;;;;;;5030897;28;20298;-74
2022/04/30 12:38:05;;;;;;;;;;;14.90;77.70;;;;;;5031052;28;19948;-74
2022/04/30 12:40:31;;;;;;;;;;;14.80;76.60;;;;;;5030226;28;19923;-74
2022/04/30 12:42:57;;;;;;;;;;;14.80;77.20;;;;;;5031272;28;19936;-74
2022/04/30 12:45:22;;;;;;;;;;;14.50;77.90;;;;;;5031135;28;20299;-74
2022/04/30 12:47:48;;;;;;;;;;;14.70;78.50;;;;;;5029973;28;19916;-75
2022/04/30 12:50:14;;;;;;;;;;;14.80;78.20;;;;;;5030952;28;19935;-75
2022/04/30 12:52:39;;;;;;;;;;;14.80;77.50;;;;;;5031213;28;19913;-74
2022/04/30 12:55:06;;;;;;;;;;;14.80;76.80;;;;;;5030837;28;20000;-74
2022/04/30 12:57:31;;;;;;;;;;;14.80;77.10;;;;;;5030702;28;19936;-75
2022/04/30 12:59:57;;;;;;;;;;;14.90;77.40;;;;;;5030931;28;20347;-74
2022/04/30 13:02:23;;;;;;;;;;;15.00;77.20;;;;;;5030886;28;19924;-75
2022/04/30 13:04:49;;;;;;;;;;;15.00;77.00;;;;;;5031482;28;19916;-74
2022/04/30 13:07:27;;;;;;;;;;;15.00;76.00;;;;;;5030729;28;19979;-75
2022/04/30 13:15:21;;;;;;;;;;;15.00;76.40;;;;;;5030824;28;20349;-74
2022/04/30 13:17:47;;;;;;;;;;;15.00;75.80;;;;;;5030606;28;19996;-76
2022/04/30 13:20:12;;;;;;;;;;;15.10;76.10;;;;;;5030678;28;19963;-75
2022/04/30 13:22:38;;;;;;;;;;;15.20;75.90;;;;;;5030941;28;19948;-74
2022/04/30 13:25:04;;;;;;;;;;;15.10;75.70;;;;;;5029429;28;19909;-74
2022/04/30 13:27:31;;;;;;;;;;;15.20;75.50;;;;;;5045968;28;19921;-74
2022/04/30 13:29:56;;;;;;;;;;;15.10;75.40;;;;;;5029433;28;19909;-74
2022/04/30 13:32:22;;;;;;;;;;;14.90;75.70;;;;;;5029273;28;19913;-74
2022/04/30 13:34:47;;;;;;;;;;;15.00;76.00;;;;;;5030634;28;20408;-75
2022/04/30 13:37:13;;;;;;;;;;;15.20;76.00;;;;;;5030496;28;20262;-75
2022/04/30 13:39:38;;;;;;;;;;;15.30;75.50;;;;;;5030374;28;19933;-74
2022/04/30 13:42:04;;;;;;;;;;;15.30;75.50;;;;;;5029174;28;19921;-73
2022/04/30 13:44:30;;;;;;;;;;;15.30;75.20;;;;;;5030484;28;19909;-74
2022/04/30 13:46:55;;;;;;;;;;;15.30;75.20;;;;;;5030337;28;19905;-75
2022/04/30 13:49:21;;;;;;;;;;;15.40;74.90;;;;;;5030723;28;20042;-75
2022/04/30 13:51:46;;;;;;;;;;;15.40;74.10;;;;;;5030434;28;19908;-74
2022/04/30 13:54:12;;;;;;;;;;;15.20;74.10;;;;;;5030346;28;20337;-75
2022/04/30 13:56:39;;;;;;;;;;;15.20;74.60;;;;;;5031760;28;19913;-74
2022/04/30 13:59:06;;;;;;;;;;;15.20;74.80;;;;;;5033930;28;19905;-75
2022/04/30 14:01:32;;;;;;;;;;;15.20;74.80;;;;;;5034387;28;20253;-74
2022/04/30 14:03:58;;;;;;;;;;;15.20;74.70;;;;;;5033759;28;19936;-74
2022/04/30 14:06:24;;;;;;;;;;;15.20;74.50;;;;;;5033871;28;19992;-75
2022/04/30 14:08:50;;;;;;;;;;;15.10;73.90;;;;;;5034017;28;19909;-75
2022/04/30 14:11:15;;;;;;;;;;;15.10;74.20;;;;;;5033914;28;19953;-76
2022/04/30 14:16:25;;;;;;;;;;;15.00;73.70;;;;;;5034030;28;20570;-75
2022/04/30 14:18:50;;;;;;;;;;;15.10;74.00;;;;;;5033758;28;19959;-75
2022/04/30 14:21:16;;;;;;;;;;;15.10;73.90;;;;;;5033641;28;20443;-75
2022/04/30 14:23:42;;;;;;;;;;;15.10;73.90;;;;;;5033548;28;19920;-74
2022/04/30 14:26:07;;;;;;;;;;;15.10;73.90;;;;;;5033534;28;20004;-75
2022/04/30 14:28:33;;;;;;;;;;;15.10;73.20;;;;;;5032919;28;19912;-74
2022/04/30 14:31:01;;;;;;;;;;;15.10;72.50;;;;;;5033692;28;19920;-74
2022/04/30 14:33:30;;;;;;;;;;;15.10;72.70;;;;;;5033218;28;19945;-75
2022/04/30 14:35:55;;;;;;;;;;;15.10;72.70;;;;;;5032141;28;19945;-74
2022/04/30 14:38:21;;;;;;;;;;;15.20;72.60;;;;;;5033144;28;19909;-75
2022/04/30 14:40:47;;;;;;;;;;;15.20;72.40;;;;;;5033500;28;19994;-75
2022/04/30 14:43:15;;;;;;;;;;;15.20;72.80;;;;;;5033052;28;19921;-75
2022/04/30 14:45:43;;;;;;;;;;;15.20;71.80;;;;;;5033059;28;20016;-75
2022/04/30 14:48:09;;;;;;;;;;;15.20;71.90;;;;;;5031646;28;20339;-74
2022/04/30 14:50:34;;;;;;;;;;;15.20;71.40;;;;;;5032786;28;19967;-74
2022/04/30 14:53:00;;;;;;;;;;;15.30;71.60;;;;;;5031760;28;20357;-75
2022/04/30 14:55:26;;;;;;;;;;;15.30;71.10;;;;;;5033320;28;19901;-75
2022/04/30 14:57:52;;;;;;;;;;;15.30;71.10;;;;;;5032817;28;19909;-75
2022/04/30 15:00:18;;;;;;;;;;;15.30;70.60;;;;;;5032898;28;20354;-75